createdAt,value
2023-05-11T00:01:29.574Z,65.16
2023-05-11T00:03:57.791Z,65.12
2023-05-11T00:06:25.814Z,65.15
2023-05-11T00:08:53.723Z,65.11
2023-05-11T00:11:21.512Z,65.39
2023-05-11T00:13:49.425Z,65.55
2023-05-11T00:16:18.979Z,65.18
2023-05-11T00:18:46.842Z,65.37
2023-05-11T00:21:14.680Z,65.49
2023-05-11T00:23:42.421Z,65.42
2023-05-11T00:26:10.278Z,65.26
2023-05-11T00:28:38.679Z,64.91
2023-05-11T00:31:06.685Z,65.05
2023-05-11T00:33:35.955Z,65.36
2023-05-11T00:36:05.233Z,65.34
2023-05-11T00:38:32.966Z,65.34
2023-05-11T00:41:00.718Z,65.43
2023-05-11T00:43:28.538Z,65.34
2023-05-11T00:45:56.626Z,65.10
2023-05-11T00:48:24.554Z,64.97
2023-05-11T00:50:53.667Z,64.79
2023-05-11T00:53:21.749Z,64.72
2023-05-11T00:55:49.716Z,64.82
2023-05-11T00:58:17.775Z,65.21
2023-05-11T01:00:47.906Z,65.71
2023-05-11T01:03:19.051Z,65.74
2023-05-11T01:05:51.344Z,65.43
2023-05-11T01:08:28.772Z,64.69
2023-05-11T01:11:03.962Z,65.72
2023-05-11T01:13:35.935Z,66.06
2023-05-11T01:16:13.579Z,65.98
2023-05-11T01:18:47.885Z,65.67
2023-05-11T01:21:19.859Z,65.57
2023-05-11T01:24:21.322Z,65.59
2023-05-11T01:27:07.966Z,65.64
2023-05-11T01:30:03.235Z,65.73
2023-05-11T01:32:36.451Z,65.89
2023-05-11T01:35:09.611Z,65.88
2023-05-11T01:37:39.977Z,65.89
2023-05-11T01:40:14.710Z,66.39
2023-05-11T01:42:45.821Z,66.11
2023-05-11T01:45:15.537Z,66.04
2023-05-11T01:47:46.254Z,66.01
2023-05-11T01:50:16.833Z,65.97
2023-05-11T01:52:46.797Z,66.18
2023-05-11T01:55:18.163Z,66.26
2023-05-11T01:57:46.617Z,65.91
2023-05-11T02:00:17.897Z,66.40
2023-05-11T02:02:49.268Z,66.35
2023-05-11T02:05:25.099Z,66.24
2023-05-11T02:07:55.608Z,66.21
2023-05-11T02:10:27.392Z,66.65
2023-05-11T02:12:56.720Z,66.42
2023-05-11T02:15:27.097Z,65.83
2023-05-11T02:17:57.723Z,66.55
2023-05-11T02:20:26.885Z,66.49
2023-05-11T02:22:55.750Z,66.42
2023-05-11T02:25:24.541Z,66.28
2023-05-11T02:27:52.563Z,66.29
2023-05-11T02:30:20.744Z,66.19
2023-05-11T02:32:52.980Z,66.28
2023-05-11T02:35:26.526Z,66.36
2023-05-11T02:37:58.960Z,66.20
2023-05-11T02:40:33.101Z,66.09
2023-05-11T02:43:09.069Z,65.96
2023-05-11T02:45:40.123Z,66.21
2023-05-11T02:48:14.089Z,65.94
2023-05-11T02:50:44.439Z,66.09
2023-05-11T02:53:17.322Z,66.00
2023-05-11T02:55:47.134Z,66.67
2023-05-11T02:58:15.815Z,66.72
2023-05-11T03:00:48.296Z,66.33
2023-05-11T03:03:16.468Z,66.30
2023-05-11T03:05:45.817Z,66.52
2023-05-11T03:08:13.791Z,66.29
2023-05-11T03:10:42.641Z,65.98
2023-05-11T03:13:11.185Z,66.22
2023-05-11T03:15:39.912Z,66.16
2023-05-11T03:18:08.759Z,65.90
2023-05-11T03:20:38.674Z,65.88
2023-05-11T03:23:09.025Z,65.55
2023-05-11T03:25:37.773Z,66.08
2023-05-11T03:28:06.963Z,65.97
2023-05-11T03:30:36.540Z,66.11
2023-05-11T03:33:04.902Z,66.38
2023-05-11T03:35:35.873Z,66.22
2023-05-11T03:38:07.428Z,66.57
2023-05-11T03:40:35.444Z,66.41
2023-05-11T03:43:05.203Z,66.50
2023-05-11T03:45:35.434Z,66.80
2023-05-11T03:48:07.414Z,66.89
2023-05-11T03:50:35.613Z,66.66
2023-05-11T03:53:04.484Z,66.43
2023-05-11T03:55:34.105Z,66.82
2023-05-11T03:58:04.273Z,66.67
2023-05-11T04:00:32.624Z,66.80
2023-05-11T04:03:05.455Z,67.04
2023-05-11T04:05:36.098Z,66.77
2023-05-11T04:08:07.486Z,66.76
2023-05-11T04:10:38.272Z,67.23
2023-05-11T04:13:06.409Z,66.92
2023-05-11T04:15:35.406Z,67.07
2023-05-11T04:18:04.403Z,67.22
2023-05-11T04:20:33.368Z,67.16
2023-05-11T04:23:01.127Z,67.02
2023-05-11T04:25:28.957Z,67.26
2023-05-11T04:27:58.189Z,67.05
2023-05-11T04:30:26.455Z,67.48
2023-05-11T04:32:54.932Z,67.19
2023-05-11T04:35:23.753Z,67.30
2023-05-11T04:37:51.608Z,67.03
2023-05-11T04:40:20.050Z,66.89
2023-05-11T04:42:48.775Z,66.71
2023-05-11T04:45:21.550Z,66.73
2023-05-11T04:47:49.442Z,66.87
2023-05-11T04:50:18.057Z,66.78
2023-05-11T04:52:46.074Z,66.68
2023-05-11T04:55:13.889Z,66.65
2023-05-11T04:57:41.897Z,66.91
2023-05-11T05:00:10.981Z,66.91
2023-05-11T05:02:40.225Z,67.06
2023-05-11T05:05:09.151Z,66.98
2023-05-11T05:07:37.215Z,67.09
2023-05-11T05:10:08.942Z,66.89
2023-05-11T05:12:37.912Z,66.75
2023-05-11T05:15:07.127Z,67.12
2023-05-11T05:17:36.763Z,67.05
2023-05-11T05:20:08.733Z,67.08
2023-05-11T05:22:36.657Z,66.87
2023-05-11T05:25:05.158Z,66.85
2023-05-11T05:27:34.918Z,67.03
2023-05-11T05:30:07.829Z,67.21
2023-05-11T05:32:35.784Z,66.86
2023-05-11T05:35:04.310Z,66.97
2023-05-11T05:37:33.728Z,66.96
2023-05-11T05:40:01.786Z,67.12
2023-05-11T05:42:30.241Z,67.21
2023-05-11T05:44:58.155Z,67.22
2023-05-11T05:47:25.948Z,67.13
2023-05-11T05:49:53.846Z,67.02
2023-05-11T05:52:21.757Z,66.84
2023-05-11T05:54:51.973Z,66.82
2023-05-11T05:57:20.521Z,66.89
2023-05-11T05:59:48.801Z,66.83
2023-05-11T06:02:19.546Z,66.93
2023-05-11T06:04:47.518Z,66.95
2023-05-11T06:07:17.850Z,67.17
2023-05-11T06:09:45.675Z,66.98
2023-05-11T06:12:14.881Z,66.95
2023-05-11T06:14:46.613Z,66.41
2023-05-11T06:17:14.612Z,66.60
2023-05-11T06:19:42.590Z,66.76
2023-05-11T06:22:10.843Z,66.83
2023-05-11T06:24:39.014Z,66.95
2023-05-11T06:27:06.911Z,66.55
2023-05-11T06:29:36.664Z,66.39
2023-05-11T06:32:06.212Z,66.55
2023-05-11T06:34:35.506Z,66.97
2023-05-11T06:37:04.207Z,66.91
2023-05-11T06:39:32.060Z,66.93
2023-05-11T06:42:03.528Z,66.55
2023-05-11T06:44:32.817Z,66.66
2023-05-11T06:47:02.008Z,66.24
2023-05-11T06:49:30.034Z,66.17
2023-05-11T06:51:58.027Z,66.33
2023-05-11T06:54:25.884Z,66.79
2023-05-11T06:56:53.656Z,66.94
2023-05-11T06:59:21.481Z,66.66
2023-05-11T07:01:49.430Z,66.59
2023-05-11T07:04:18.639Z,66.72
2023-05-11T07:06:46.520Z,66.80
2023-05-11T07:09:14.434Z,67.13
2023-05-11T07:11:42.466Z,66.39
2023-05-11T07:14:10.440Z,66.17
2023-05-11T07:16:38.609Z,66.95
2023-05-11T07:19:08.448Z,66.57
2023-05-11T07:21:37.887Z,66.95
2023-05-11T07:24:06.156Z,66.98
2023-05-11T07:26:34.145Z,66.96
2023-05-11T07:29:02.285Z,66.68
2023-05-11T07:31:30.322Z,67.24
2023-05-11T07:33:58.234Z,66.73
2023-05-11T07:36:26.534Z,66.62
2023-05-11T07:38:55.774Z,67.13
2023-05-11T07:41:26.763Z,66.96
2023-05-11T07:43:54.772Z,66.82
2023-05-11T07:46:22.957Z,67.15
2023-05-11T07:48:57.457Z,67.18
2023-05-11T07:51:31.993Z,66.92
2023-05-11T07:54:01.284Z,66.92
2023-05-11T07:56:29.155Z,67.00
2023-05-11T07:58:56.920Z,67.40
2023-05-11T08:01:24.765Z,66.76
2023-05-11T08:03:52.608Z,66.75
2023-05-11T08:06:20.469Z,66.93
2023-05-11T08:08:48.473Z,66.72
2023-05-11T08:11:17.664Z,67.06
2023-05-11T08:13:45.534Z,66.87
2023-05-11T08:16:13.368Z,66.97
2023-05-11T08:18:41.329Z,66.74
2023-05-11T08:21:09.301Z,66.77
2023-05-11T08:23:37.757Z,67.10
2023-05-11T08:26:06.632Z,67.19
2023-05-11T08:28:35.846Z,67.06
2023-05-11T08:31:03.812Z,67.01
2023-05-11T08:33:38.131Z,67.14
2023-05-11T08:36:08.132Z,67.25
2023-05-11T08:38:36.449Z,66.98
2023-05-11T08:41:04.952Z,67.49
2023-05-11T08:43:36.037Z,67.29
2023-05-11T08:46:07.493Z,67.10
2023-05-11T08:48:36.236Z,67.00
2023-05-11T08:51:04.642Z,67.42
2023-05-11T08:53:33.746Z,67.42
2023-05-11T08:56:05.975Z,67.46
2023-05-11T08:58:37.654Z,67.16
2023-05-11T09:01:06.661Z,67.20
2023-05-11T09:03:37.721Z,67.20
2023-05-11T09:06:08.372Z,66.96
2023-05-11T09:08:39.531Z,66.92
2023-05-11T09:11:07.990Z,66.88
2023-05-11T09:13:37.704Z,66.90
2023-05-11T09:16:11.323Z,66.93
2023-05-11T09:18:48.738Z,66.44
2023-05-11T09:21:17.609Z,66.15
2023-05-11T09:23:45.662Z,66.59
2023-05-11T09:26:16.951Z,66.80
2023-05-11T09:29:07.585Z,66.71
2023-05-11T09:31:40.191Z,66.87
2023-05-11T09:34:19.421Z,66.85
2023-05-11T09:36:48.817Z,66.79
2023-05-11T09:42:18.830Z,67.26
2023-05-11T09:44:48.772Z,67.36
2023-05-11T09:47:22.509Z,66.08
2023-05-11T09:49:51.242Z,66.86
2023-05-11T09:52:21.098Z,66.40
2023-05-11T09:54:51.609Z,66.30
2023-05-11T09:57:26.906Z,66.20
2023-05-11T09:59:57.751Z,65.71
2023-05-11T10:02:27.826Z,66.33
2023-05-11T10:04:57.901Z,65.99
2023-05-11T10:07:29.769Z,66.38
2023-05-11T10:09:59.301Z,65.95
2023-05-11T10:12:28.375Z,65.21
2023-05-11T10:15:03.812Z,65.27
2023-05-11T10:17:32.615Z,65.13
2023-05-11T10:20:01.841Z,64.73
2023-05-11T10:22:34.232Z,64.80
2023-05-11T10:25:05.980Z,64.85
2023-05-11T10:27:34.528Z,65.07
2023-05-11T10:30:05.043Z,65.41
2023-05-11T10:32:37.452Z,65.26
2023-05-11T10:35:07.881Z,64.78
2023-05-11T10:37:36.627Z,64.82
2023-05-11T10:40:05.592Z,64.38
2023-05-11T10:42:51.558Z,64.06
2023-05-11T10:45:24.070Z,64.15
2023-05-11T10:48:12.900Z,63.22
2023-05-11T10:51:01.767Z,63.33
2023-05-11T10:53:47.548Z,62.94
2023-05-11T10:56:27.488Z,62.35
2023-05-11T10:59:16.047Z,62.57
2023-05-11T11:01:46.417Z,62.99
2023-05-11T11:04:15.450Z,61.59
2023-05-11T11:06:44.953Z,62.03
2023-05-11T11:09:14.643Z,62.14
2023-05-11T11:11:46.046Z,62.00
2023-05-11T11:14:15.289Z,61.79
2023-05-11T11:17:21.943Z,61.94
2023-05-11T11:19:51.181Z,62.33
2023-05-11T11:22:46.811Z,62.20
2023-05-11T11:25:17.045Z,62.06
2023-05-11T11:28:00.108Z,62.08
2023-05-11T11:30:30.548Z,61.54
2023-05-11T11:33:32.367Z,61.89
2023-05-11T11:36:01.671Z,61.87
2023-05-11T11:38:32.421Z,61.81
2023-05-11T11:41:00.357Z,60.82
2023-05-11T11:43:30.288Z,59.33
2023-05-11T11:45:59.692Z,59.32
2023-05-11T11:48:32.251Z,58.50
2023-05-11T11:51:06.567Z,59.00
2023-05-11T11:54:05.031Z,59.11
2023-05-11T11:56:43.881Z,58.75
2023-05-11T11:59:15.587Z,58.45
2023-05-11T12:01:45.504Z,56.00
2023-05-11T12:04:41.994Z,56.39
2023-05-11T12:07:11.674Z,56.20
2023-05-11T12:09:41.345Z,55.43
2023-05-11T12:12:11.273Z,55.88
2023-05-11T12:14:42.766Z,55.66
2023-05-11T12:17:15.978Z,56.11
2023-05-11T12:19:45.467Z,55.72
2023-05-11T12:22:16.406Z,54.91
2023-05-11T12:24:45.029Z,55.42
2023-05-11T12:27:12.927Z,55.95
2023-05-11T12:29:41.406Z,55.57
2023-05-11T12:32:12.998Z,55.85
2023-05-11T12:34:40.951Z,55.49
2023-05-11T12:37:09.508Z,55.11
2023-05-11T12:39:39.638Z,55.87
2023-05-11T12:42:07.836Z,56.72
2023-05-11T12:44:36.362Z,57.71
2023-05-11T12:47:04.936Z,57.58
2023-05-11T12:49:33.108Z,57.16
2023-05-11T12:52:08.680Z,56.33
2023-05-11T12:54:40.091Z,57.09
2023-05-11T12:57:09.449Z,57.31
2023-05-11T12:59:38.998Z,57.53
2023-05-11T13:02:17.294Z,57.94
2023-05-11T13:04:46.694Z,57.44
2023-05-11T13:07:24.432Z,57.11
2023-05-11T13:09:58.934Z,57.16
2023-05-11T13:12:28.919Z,57.31
2023-05-11T13:15:08.092Z,57.25
2023-05-11T13:17:37.793Z,57.07
2023-05-11T13:20:19.884Z,57.21
2023-05-11T13:22:49.339Z,57.89
2023-05-11T13:25:21.021Z,57.98
2023-05-11T13:27:49.410Z,57.77
2023-05-11T13:30:17.505Z,57.94
2023-05-11T13:32:45.378Z,58.29
2023-05-11T13:35:13.430Z,57.96
2023-05-11T13:37:41.414Z,58.88
2023-05-11T13:40:10.672Z,58.73
2023-05-11T13:42:39.924Z,58.76
2023-05-11T13:45:09.227Z,59.04
2023-05-11T13:47:37.504Z,58.13
2023-05-11T13:50:06.407Z,58.97
2023-05-11T13:52:34.361Z,58.93
2023-05-11T13:55:03.911Z,59.26
2023-05-11T13:57:31.959Z,59.69
2023-05-11T14:00:01.214Z,59.39
2023-05-11T14:02:39.459Z,59.67
2023-05-11T14:05:08.649Z,60.00
2023-05-11T14:07:47.231Z,60.21
2023-05-11T14:10:19.883Z,60.74
2023-05-11T14:12:47.721Z,60.88
2023-05-11T14:15:17.340Z,61.35
2023-05-11T14:17:45.449Z,60.73
2023-05-11T14:20:14.566Z,61.30
2023-05-11T14:22:42.571Z,61.50
2023-05-11T14:25:10.707Z,61.61
2023-05-11T14:27:39.413Z,60.53
2023-05-11T14:30:08.988Z,60.30
2023-05-11T14:32:38.309Z,60.37
2023-05-11T14:35:07.100Z,60.40
2023-05-11T14:37:35.624Z,60.79
2023-05-11T14:40:03.824Z,60.18
2023-05-11T14:42:31.808Z,60.73
2023-05-11T14:44:59.809Z,60.79
2023-05-11T14:47:27.767Z,60.40
2023-05-11T14:49:56.906Z,61.11
2023-05-11T14:52:24.772Z,60.87
2023-05-11T14:54:52.886Z,60.97
2023-05-11T14:57:20.948Z,60.98
2023-05-11T14:59:58.840Z,61.18
2023-05-11T15:02:27.518Z,60.46
2023-05-11T15:04:56.933Z,60.01
2023-05-11T15:07:24.803Z,60.51
2023-05-11T15:09:52.804Z,60.74
2023-05-11T15:12:20.590Z,60.74
2023-05-11T15:14:48.574Z,60.34
2023-05-11T15:17:19.378Z,60.99
2023-05-11T15:19:47.350Z,61.08
2023-05-11T15:22:17.636Z,60.81
2023-05-11T15:24:45.642Z,60.61
2023-05-11T15:27:13.541Z,61.40
2023-05-11T15:29:41.471Z,61.56
2023-05-11T15:32:09.594Z,60.68
2023-05-11T15:34:47.491Z,60.81
2023-05-11T15:37:27.741Z,60.73
2023-05-11T15:39:55.569Z,61.32
2023-05-11T15:42:23.430Z,61.26
2023-05-11T15:44:51.315Z,61.71
2023-05-11T15:47:20.468Z,61.40
2023-05-11T15:49:48.380Z,61.22
2023-05-11T15:52:16.402Z,61.66
2023-05-11T15:54:45.923Z,61.44
2023-05-11T15:57:14.121Z,61.18
2023-05-11T15:59:42.322Z,61.30
2023-05-11T16:02:10.699Z,61.60
2023-05-11T16:04:38.880Z,61.83
2023-05-11T16:07:07.087Z,61.79
2023-05-11T16:09:34.985Z,62.37
2023-05-11T16:12:04.478Z,62.03
2023-05-11T16:14:32.415Z,62.62
2023-05-11T16:17:01.734Z,62.91
2023-05-11T16:19:30.074Z,62.29
2023-05-11T16:21:58.323Z,62.19
2023-05-11T16:24:26.933Z,62.15
2023-05-11T16:26:54.765Z,62.64
2023-05-11T16:29:25.777Z,62.54
2023-05-11T16:31:54.681Z,62.63
2023-05-11T16:34:22.556Z,62.22
2023-05-11T16:36:50.602Z,62.01
2023-05-11T16:39:18.609Z,61.83
2023-05-11T16:41:46.525Z,61.70
2023-05-11T16:44:14.539Z,61.95
2023-05-11T16:46:43.874Z,62.65
2023-05-11T16:49:11.862Z,62.09
2023-05-11T16:51:39.887Z,61.60
2023-05-11T16:54:08.120Z,61.43
2023-05-11T16:56:36.345Z,61.68
2023-05-11T16:59:04.400Z,61.73
2023-05-11T17:01:32.279Z,61.25
2023-05-11T17:04:01.477Z,61.65
2023-05-11T17:06:29.439Z,61.89
2023-05-11T17:08:57.192Z,62.04
2023-05-11T17:11:25.537Z,61.37
2023-05-11T17:13:53.311Z,61.47
2023-05-11T17:16:21.169Z,61.84
2023-05-11T17:18:49.180Z,61.49
2023-05-11T17:21:18.501Z,61.33
2023-05-11T17:23:46.273Z,61.33
2023-05-11T17:26:14.302Z,61.10
2023-05-11T17:28:42.559Z,61.24
2023-05-11T17:31:12.317Z,62.16
2023-05-11T17:33:41.214Z,60.97
2023-05-11T17:36:10.303Z,61.14
2023-05-11T17:38:39.695Z,60.73
2023-05-11T17:41:08.149Z,60.62
2023-05-11T17:43:37.847Z,60.71
2023-05-11T17:46:06.024Z,61.17
2023-05-11T17:48:34.226Z,61.05
2023-05-11T17:51:02.447Z,60.94
2023-05-11T17:53:30.231Z,61.00
2023-05-11T17:56:01.126Z,61.04
2023-05-11T17:58:29.076Z,61.86
2023-05-11T18:00:56.838Z,61.73
2023-05-11T18:03:24.813Z,62.10
2023-05-11T18:05:53.323Z,62.50
2023-05-11T18:08:21.220Z,62.34
2023-05-11T18:10:49.122Z,62.67
2023-05-11T18:13:18.462Z,62.93
2023-05-11T18:15:46.402Z,63.30
2023-05-11T18:18:14.501Z,63.18
2023-05-11T18:20:45.307Z,63.45
2023-05-11T18:23:13.812Z,62.54
2023-05-11T18:25:43.828Z,63.01
2023-05-11T18:28:11.778Z,62.85
2023-05-11T18:30:41.005Z,62.55
2023-05-11T18:33:09.059Z,63.05
2023-05-11T18:35:39.028Z,63.32
2023-05-11T18:38:07.468Z,62.85
2023-05-11T18:40:36.109Z,62.84
2023-05-11T18:43:04.256Z,62.71
2023-05-11T18:45:33.935Z,62.80
2023-05-11T18:48:03.674Z,63.54
2023-05-11T18:50:31.595Z,63.45
2023-05-11T18:52:59.483Z,63.25
2023-05-11T18:55:30.950Z,62.78
2023-05-11T18:58:00.328Z,62.81
2023-05-11T19:00:28.445Z,62.88
2023-05-11T19:02:56.645Z,63.64
2023-05-11T19:05:25.900Z,63.34
2023-05-11T19:07:53.854Z,63.18
2023-05-11T19:10:23.921Z,63.35
2023-05-11T19:12:52.049Z,64.21
2023-05-11T19:15:20.119Z,64.41
2023-05-11T19:17:47.977Z,64.08
2023-05-11T19:20:16.021Z,64.05
2023-05-11T19:22:46.009Z,64.25
2023-05-11T19:25:14.060Z,64.32
2023-05-11T19:27:41.828Z,64.09
2023-05-11T19:30:10.643Z,64.21
2023-05-11T19:32:39.229Z,64.43
2023-05-11T19:35:07.726Z,64.11
2023-05-11T19:37:35.589Z,64.03
2023-05-11T19:40:43.092Z,64.46
2023-05-11T19:42:53.745Z,64.25
2023-05-11T19:45:21.866Z,64.56
2023-05-11T19:47:49.705Z,64.63
2023-05-11T19:50:19.808Z,64.18
2023-05-11T19:52:48.915Z,64.46
2023-05-11T19:55:18.195Z,64.91
2023-05-11T19:57:46.092Z,64.69
2023-05-11T20:00:14.342Z,64.76
2023-05-11T20:02:42.320Z,65.01
2023-05-11T20:05:10.866Z,65.25
2023-05-11T20:07:38.855Z,65.33
2023-05-11T20:10:08.823Z,65.44
2023-05-11T20:12:40.049Z,66.02
2023-05-11T20:15:09.907Z,65.80
2023-05-11T20:17:39.386Z,65.43
2023-05-11T20:20:08.608Z,65.41
2023-05-11T20:22:37.328Z,65.76
2023-05-11T20:25:09.605Z,65.90
2023-05-11T20:27:47.089Z,65.69
2023-05-11T20:30:15.560Z,65.60
2023-05-11T20:34:06.767Z,65.96
2023-05-11T20:35:31.526Z,66.24
2023-05-11T20:37:59.361Z,66.69
2023-05-11T20:40:27.328Z,66.22
2023-05-11T20:42:56.694Z,65.97
2023-05-11T20:45:24.803Z,66.20
2023-05-11T20:47:52.817Z,66.49
2023-05-11T20:50:21.635Z,66.10
2023-05-11T20:52:49.518Z,65.38
2023-05-11T20:55:17.678Z,65.77
2023-05-11T20:57:45.834Z,66.30
2023-05-11T21:00:17.679Z,65.93
2023-05-11T21:02:46.839Z,66.70
2023-05-11T21:05:14.981Z,67.17
2023-05-11T21:07:43.773Z,67.30
2023-05-11T21:10:12.791Z,67.18
2023-05-11T21:12:40.760Z,67.04
2023-05-11T21:15:09.611Z,67.10
2023-05-11T21:17:41.292Z,66.90
2023-05-11T21:20:10.307Z,67.17
2023-05-11T21:22:38.414Z,67.09
2023-05-11T21:25:07.528Z,67.04
2023-05-11T21:27:35.494Z,67.18
2023-05-11T21:30:03.879Z,67.23
2023-05-11T21:32:32.461Z,67.48
2023-05-11T21:35:01.792Z,67.31
2023-05-11T21:37:33.511Z,67.25
2023-05-11T21:40:01.452Z,67.13
2023-05-11T21:42:34.234Z,66.73
2023-05-11T21:45:02.138Z,66.82
2023-05-11T21:47:33.159Z,67.19
2023-05-11T21:50:02.570Z,67.25
2023-05-11T21:52:30.693Z,67.14
2023-05-11T21:54:58.466Z,67.15
2023-05-11T21:57:26.392Z,66.92
2023-05-11T21:59:54.298Z,67.20
2023-05-11T22:02:22.208Z,66.81
2023-05-11T22:04:50.645Z,66.77
2023-05-11T22:07:19.905Z,66.68
2023-05-11T22:09:47.586Z,66.70
2023-05-11T22:12:15.438Z,66.78
2023-05-11T22:14:43.187Z,66.67
2023-05-11T22:17:11.773Z,67.27
2023-05-11T22:19:40.197Z,66.98
2023-05-11T22:22:08.136Z,66.83
2023-05-11T22:24:37.783Z,66.60
2023-05-11T22:27:05.587Z,67.04
2023-05-11T22:29:33.386Z,67.43
2023-05-11T22:32:01.263Z,67.44
2023-05-11T22:34:29.141Z,67.06
2023-05-11T22:36:56.942Z,67.32
2023-05-11T22:39:24.783Z,67.37
2023-05-11T22:41:54.409Z,67.32
2023-05-11T22:44:22.362Z,67.15
2023-05-11T22:46:50.723Z,67.09
2023-05-11T22:49:18.607Z,67.13
2023-05-11T22:51:46.356Z,67.21
2023-05-11T22:54:15.933Z,67.56
2023-05-11T22:56:44.054Z,67.69
2023-05-11T22:59:13.625Z,67.85
2023-05-11T23:01:41.584Z,67.84
2023-05-11T23:04:09.648Z,67.92
2023-05-11T23:06:38.305Z,67.90
2023-05-11T23:09:06.197Z,67.84
2023-05-11T23:11:34.010Z,68.32
2023-05-11T23:14:03.617Z,68.44
2023-05-11T23:16:32.788Z,68.80
2023-05-11T23:19:02.589Z,68.84
2023-05-11T23:21:30.416Z,68.88
2023-05-11T23:23:58.161Z,68.82
2023-05-11T23:26:26.030Z,68.98
2023-05-11T23:28:53.849Z,69.07
2023-05-11T23:31:21.927Z,68.92
2023-05-11T23:33:51.336Z,69.28
2023-05-11T23:36:19.198Z,69.11
2023-05-11T23:38:46.949Z,69.05
2023-05-11T23:41:14.805Z,69.22
2023-05-11T23:43:42.860Z,69.39
2023-05-11T23:46:12.775Z,68.82
2023-05-11T23:48:43.705Z,68.88
2023-05-11T23:51:13.213Z,69.07
2023-05-11T23:53:41.281Z,69.47
2023-05-11T23:56:09.412Z,69.60
2023-05-11T23:58:37.233Z,69.37
